Friday, February 23, 2018, 2:49 PM EST
Back to Local

KPSM, Pease Air Force Base / Portsmouth

Location: Portsmouth, NH, United States Lat: 43.083
Local Time: 2:49 PM EST (19:49 GMT) Lon: -70.817
Time Zone: US/Eastern Elev: 101 ft

Show me the last for .
Show Decoded

2018-02-23 14:34 METAR KPSM 231934Z 14012KT 10SM SCT030 BKN100 OVC250 03/M03 A3047 RMK AO2A
                 PRESFR =
2018-02-23 13:56 METAR KPSM 231856Z 13011KT 10SM BKN029 BKN120 OVC200 03/M03 A3051 RMK AO2A
                 SLP335 T00341028 =
2018-02-23 13:51 METAR KPSM 231851Z 11011KT 10SM BKN029 BKN120 OVC200 03/M03 A3051 RMK AO2A =
2018-02-23 12:56 METAR KPSM 231756Z 14010KT 10SM SCT032 BKN110 BKN200 03/M03 A3055 RMK AO2A
                 PRESFR SLP349 4/001 T00311033 10036 21050 57037 =
2018-02-23 11:56 METAR KPSM 231656Z 16007KT 10SM SCT035 SCT120 BKN250 03/M04 A3061 RMK AO2A
                 SLP369 T00321043 =
2018-02-23 10:56 METAR KPSM 231556Z 10009KT 10SM FEW030 SCT120 BKN250 02/M05 A3063 RMK AO2A
                 SLP376 T00231049 =
2018-02-23 09:56 METAR KPSM 231456Z 00000KT 10SM FEW130 BKN250 01/M03 A3066 RMK AO2A SLP386
                 T00141033 58010 =
2018-02-23 08:56 METAR KPSM 231356Z COR 03003KT 10SM SCT130 BKN250 M01/M04 A3068 RMK AO2A SLP393
                 T10091041 COR 1357 =
2018-02-23 07:56 METAR KPSM 231256Z 00000KT 10SM SCT130 BKN250 M04/M05 A3069 RMK AO2A SLP396
                 T10371050 =
2018-02-23 06:56 METAR KPSM 231156Z 00000KT 10SM FEW090 BKN250 M05/M05 A3069 RMK AO2A SLP396
                 70011 4/001 T10461054 11025 21054 55004 =
2018-02-23 05:56 METAR KPSM 231056Z VRB02KT 10SM FEW090 SCT250 M04/M05 A3069 RMK AO2A SLP396
                 T10421049 =
2018-02-23 04:56 METAR KPSM 230956Z VRB03KT 10SM FEW080 M04/M05 A3069 RMK AO2A SLP396 T10401046 =
2018-02-23 03:56 METAR KPSM 230856Z 00000KT 4SM BR FEW003 FEW080 M05/M06 A3070 RMK AO2A SLP400
                 T10511058 50010 =
2018-02-23 02:56 METAR KPSM 230756Z 00000KT 3SM BR FEW003 SCT080 M03/M04 A3069 RMK AO2A SLP396
                 T10331037 =
2018-02-23 02:27 METAR KPSM 230727Z 00000KT 4SM R34/P6000FT BR FEW003 BKN080 M04/M04 A3070 RMK
                 AO2A =
2018-02-23 01:56 METAR KPSM 230656Z 00000KT 4SM R34/3000VP6000FT BR FEW000 SCT003 BKN080 M04/M04
                 A3070 RMK AO2A VIS S 1 1/2 FG FEW000 PRESRR SLP400 T10381044 =
2018-02-23 01:38 METAR KPSM 230638Z 00000KT 4SM R34/2800V5500FT BR FEW000 SCT003 BKN080 M03/M04
                 A3068 RMK AO2A FG FEW000 =
2018-02-23 00:56 METAR KPSM 230556Z 00000KT 3SM BR FEW001 OVC090 M03/M03 A3067 RMK AO2A VIS S 1
                 1/2 SLP389 4/001 T10271030 11001 21042 57003 =
2018-02-23 00:45 METAR KPSM 230545Z 00000KT 3SM BR FEW001 OVC090 M03/M03 A3067 RMK AO2A VIS S 1
                 1/4 =
2018-02-23 00:22 METAR KPSM 230522Z 00000KT 1 1/4SM R34/P6000FT BR FEW001 OVC090 M03/M03 A3068
                 RMK AO2A =
2018-02-22 23:56 METAR KPSM 230456Z 00000KT 1/2SM R34/3500V5000FT FZFG SCT001 BKN080 M04/M04
                 A3068 RMK AO2A VIS NW 2 SLP393 T10391045 400911039 =
2018-02-22 22:56 METAR KPSM 230356Z 00000KT 3/8SM R34/2200V2800FT FZFG FEW001 SCT080 M03/M04
                 A3068 RMK AO2A SLP393 T10331037 =
2018-02-22 21:56 METAR KPSM 230256Z 00000KT 3/8SM R34/1800V4000FT FZFG FEW005 M03/M03 A3068 RMK
                 AO2A SLP393 T10291032 53009 =
2018-02-22 21:50 METAR KPSM 230250Z 00000KT 3/8SM R34/1800V3500FT FZFG FEW005 M03/M04 A3067 RMK
                 AO2A =
2018-02-22 21:42 METAR KPSM 230242Z 00000KT 5/8SM R34/3000V4500FT BCFG FEW005 M02/M03 A3067 RMK
                 AO2A =
2018-02-22 21:15 METAR KPSM 230215Z 00000KT 1/2SM R34/1800V6000FT PRFZFG FEW005 M03/M03 A3066 RMK
                 AO2A =
2018-02-22 20:56 METAR KPSM 230156Z 00000KT 8SM BCFG FEW005 M02/M02 A3067 RMK AO2A SLP389
                 T10181019 =
2018-02-22 19:56 METAR KPSM 230056Z 00000KT 8SM BCFG FEW005 SCT150 M01/M01 A3065 RMK AO2A SLP383
                 T10091012 =
2018-02-22 19:00 METAR KPSM 230000Z 00000KT 10SM FEW007 BKN110 BKN160 M00/M00 A3065 RMK AO2A =
2018-02-22 18:56 METAR KPSM 222356Z 00000KT 10SM SCT029 BKN110 M00/M00 A3065 RMK AO2A SLP382
                 60011 4/001 T10011005 10036 21001 50005 =
2018-02-22 18:20 METAR KPSM 222320Z 00000KT 10SM SCT011 BKN025 OVC110 00/M00 A3065 RMK AO2A =
2018-02-22 17:56 METAR KPSM 222256Z 29003KT 7SM FEW003 BKN010 OVC023 00/M00 A3065 RMK AO2A SNE55
                 SLP382 P0002 T00011002 =
2018-02-22 17:44 METAR KPSM 222244Z 29004KT 3SM -SN BR FEW003 BKN008 OVC019 00/00 A3066 RMK AO2A
                 =
2018-02-22 17:30 METAR KPSM 222230Z 26003KT 1 1/2SM -SN BR BKN003 OVC012 00/00 A3066 RMK AO2A =
2018-02-22 17:20 METAR KPSM 222220Z 00000KT 1SM R34/P6000FT -SN BR BKN003 OVC012 00/00 A3066 RMK
                 AO2A =
2018-02-22 17:10 METAR KPSM 222210Z 00000KT 3/4SM R34/5000V6000FT -SN BR SCT002 OVC010 00/00
                 A3066 RMK AO2A =
2018-02-22 16:56 METAR KPSM 222156Z 29003KT 1/2SM R34/5000V5500FT -SN FZFG BKN002 OVC006 00/00
                 A3066 RMK AO2A SLP386 P0007 T00030000 =
2018-02-22 16:40 METAR KPSM 222140Z 29004KT 1/2SM R34/5500V6000FT -SN FZFG BKN002 OVC006 00/M00
                 A3065 RMK AO2A =
2018-02-22 16:25 METAR KPSM 222125Z 27003KT 1/4SM R34/4500V5000FT -SN FZFG BKN002 OVC006 00/M00
                 A3065 RMK AO2A =
2018-02-22 15:56 METAR KPSM 222056Z 00000KT 1/4SM R34/5000V5500FT -SN FZFG SCT004 OVC007 00/M00
                 A3063 RMK AO2A SLP376 P0002 60002 T00031004 =
2018-02-22 15:40 METAR KPSM 222040Z 00000KT 1/2SM R34/5500VP6000FT -SN FZFG FEW004 OVC010 01/M01
                 A3063 RMK AO2A =
2018-02-22 15:30 METAR KPSM 222030Z VRB04KT 3/4SM R34/P6000FT -SN FEW007 OVC015 01/M01 A3062 RMK
                 AO2A =
2018-02-22 15:25 METAR KPSM 222025Z VRB04KT 3/4SM R34/P6000FT -SN FEW007 OVC020 01/M01 A3062 RMK
                 AO2A =
2018-02-22 15:05 METAR KPSM 222005Z 35004KT 1 1/2SM -SN FEW007 OVC020 02/M02 A3062 RMK AO2A =
2018-02-22 14:56 METAR KPSM 221956Z 36003KT 3SM -SN FEW007 OVC020 02/M02 A3062 RMK AO2A SLP372
                 P0000 T00181023 =

Support USWX by starting your Amazon purchase here.